sensor_id;sensor_type;location;lat;lon;timestamp;P1;durP1;ratioP1;P2;durP2;ratioP2
41568;SDS011;27283;52.504;13.358;2023-03-01T00:01:40;36.80;;;15.73;;
41568;SDS011;27283;52.504;13.358;2023-03-01T00:04:12;31.55;;;14.85;;
41568;SDS011;27283;52.504;13.358;2023-03-01T00:06:44;33.85;;;15.32;;
41568;SDS011;27283;52.504;13.358;2023-03-01T00:09:18;35.03;;;15.02;;
41568;SDS011;27283;52.504;13.358;2023-03-01T00:11:50;40.85;;;15.63;;
41568;SDS011;27283;52.504;13.358;2023-03-01T00:14:22;33.25;;;15.00;;
41568;SDS011;27283;52.504;13.358;2023-03-01T00:16:54;33.95;;;15.23;;
41568;SDS011;27283;52.504;13.358;2023-03-01T00:19:25;36.60;;;15.60;;
41568;SDS011;27283;52.504;13.358;2023-03-01T00:21:56;34.88;;;15.02;;
41568;SDS011;27283;52.504;13.358;2023-03-01T00:24:31;35.60;;;15.50;;
41568;SDS011;27283;52.504;13.358;2023-03-01T00:27:02;37.55;;;16.30;;
41568;SDS011;27283;52.504;13.358;2023-03-01T00:29:34;38.10;;;15.98;;
41568;SDS011;27283;52.504;13.358;2023-03-01T00:32:05;34.42;;;14.75;;
41568;SDS011;27283;52.504;13.358;2023-03-01T00:34:37;35.05;;;15.57;;
41568;SDS011;27283;52.504;13.358;2023-03-01T00:37:09;34.90;;;15.98;;
41568;SDS011;27283;52.504;13.358;2023-03-01T00:39:43;43.40;;;17.17;;
41568;SDS011;27283;52.504;13.358;2023-03-01T00:42:15;40.15;;;17.05;;
41568;SDS011;27283;52.504;13.358;2023-03-01T00:44:47;39.42;;;16.45;;
41568;SDS011;27283;52.504;13.358;2023-03-01T00:47:18;35.67;;;16.27;;
41568;SDS011;27283;52.504;13.358;2023-03-01T00:49:53;37.28;;;16.08;;
41568;SDS011;27283;52.504;13.358;2023-03-01T00:52:24;37.30;;;16.52;;
41568;SDS011;27283;52.504;13.358;2023-03-01T00:54:59;40.55;;;17.00;;
41568;SDS011;27283;52.504;13.358;2023-03-01T00:57:30;35.80;;;16.30;;
41568;SDS011;27283;52.504;13.358;2023-03-01T01:00:02;36.35;;;16.55;;
41568;SDS011;27283;52.504;13.358;2023-03-01T01:02:35;44.70;;;18.38;;
41568;SDS011;27283;52.504;13.358;2023-03-01T01:05:07;45.70;;;18.65;;
41568;SDS011;27283;52.504;13.358;2023-03-01T01:07:39;40.50;;;18.33;;
41568;SDS011;27283;52.504;13.358;2023-03-01T01:10:13;40.28;;;18.25;;
41568;SDS011;27283;52.504;13.358;2023-03-01T01:12:45;45.33;;;19.33;;
41568;SDS011;27283;52.504;13.358;2023-03-01T01:15:17;40.28;;;18.25;;
41568;SDS011;27283;52.504;13.358;2023-03-01T01:17:49;47.17;;;20.05;;
41568;SDS011;27283;52.504;13.358;2023-03-01T01:20:20;51.03;;;20.00;;
41568;SDS011;27283;52.504;13.358;2023-03-01T01:22:52;45.40;;;19.73;;
41568;SDS011;27283;52.504;13.358;2023-03-01T01:25:26;42.00;;;18.52;;
41568;SDS011;27283;52.504;13.358;2023-03-01T01:27:58;43.13;;;19.17;;
41568;SDS011;27283;52.504;13.358;2023-03-01T01:30:29;43.17;;;19.85;;
41568;SDS011;27283;52.504;13.358;2023-03-01T01:33:01;45.58;;;19.88;;
41568;SDS011;27283;52.504;13.358;2023-03-01T01:35:32;43.95;;;20.30;;
41568;SDS011;27283;52.504;13.358;2023-03-01T01:38:04;44.45;;;19.95;;
41568;SDS011;27283;52.504;13.358;2023-03-01T01:40:45;40.20;;;19.77;;
41568;SDS011;27283;52.504;13.358;2023-03-01T01:43:19;47.78;;;20.17;;
41568;SDS011;27283;52.504;13.358;2023-03-01T01:45:53;45.85;;;20.35;;
41568;SDS011;27283;52.504;13.358;2023-03-01T01:48:29;44.58;;;19.20;;
41568;SDS011;27283;52.504;13.358;2023-03-01T01:51:11;42.45;;;20.58;;
41568;SDS011;27283;52.504;13.358;2023-03-01T01:53:45;55.13;;;21.30;;
41568;SDS011;27283;52.504;13.358;2023-03-01T01:56:24;45.45;;;19.77;;
41568;SDS011;27283;52.504;13.358;2023-03-01T01:58:59;47.78;;;20.77;;
41568;SDS011;27283;52.504;13.358;2023-03-01T02:01:32;43.80;;;20.08;;
41568;SDS011;27283;52.504;13.358;2023-03-01T02:04:04;47.95;;;21.27;;
41568;SDS011;27283;52.504;13.358;2023-03-01T02:06:38;46.35;;;21.45;;
41568;SDS011;27283;52.504;13.358;2023-03-01T02:09:14;50.38;;;20.88;;
41568;SDS011;27283;52.504;13.358;2023-03-01T02:11:52;45.20;;;20.52;;
41568;SDS011;27283;52.504;13.358;2023-03-01T02:14:25;45.97;;;21.50;;
41568;SDS011;27283;52.504;13.358;2023-03-01T02:16:57;51.17;;;21.98;;
41568;SDS011;27283;52.504;13.358;2023-03-01T02:19:33;50.67;;;21.73;;
41568;SDS011;27283;52.504;13.358;2023-03-01T02:22:17;42.83;;;20.35;;
41568;SDS011;27283;52.504;13.358;2023-03-01T02:24:59;46.88;;;21.63;;
41568;SDS011;27283;52.504;13.358;2023-03-01T02:27:45;44.85;;;20.40;;
41568;SDS011;27283;52.504;13.358;2023-03-01T02:30:28;50.75;;;21.98;;
41568;SDS011;27283;52.504;13.358;2023-03-01T02:33:02;52.95;;;21.27;;
41568;SDS011;27283;52.504;13.358;2023-03-01T02:35:33;45.80;;;20.77;;
41568;SDS011;27283;52.504;13.358;2023-03-01T02:38:08;46.75;;;21.17;;
41568;SDS011;27283;52.504;13.358;2023-03-01T02:40:40;50.20;;;21.98;;
41568;SDS011;27283;52.504;13.358;2023-03-01T02:43:13;51.70;;;22.50;;
41568;SDS011;27283;52.504;13.358;2023-03-01T02:45:51;48.05;;;22.33;;
41568;SDS011;27283;52.504;13.358;2023-03-01T02:48:23;50.58;;;21.65;;
41568;SDS011;27283;52.504;13.358;2023-03-01T02:51:01;46.75;;;21.17;;
41568;SDS011;27283;52.504;13.358;2023-03-01T02:53:39;46.35;;;20.75;;
41568;SDS011;27283;52.504;13.358;2023-03-01T02:56:20;50.97;;;22.17;;
41568;SDS011;27283;52.504;13.358;2023-03-01T02:58:52;47.90;;;22.67;;
41568;SDS011;27283;52.504;13.358;2023-03-01T03:01:32;47.45;;;21.67;;
41568;SDS011;27283;52.504;13.358;2023-03-01T03:04:08;45.90;;;20.70;;
41568;SDS011;27283;52.504;13.358;2023-03-01T03:06:45;47.72;;;21.75;;
41568;SDS011;27283;52.504;13.358;2023-03-01T03:09:19;48.42;;;22.35;;
41568;SDS011;27283;52.504;13.358;2023-03-01T03:11:51;46.88;;;21.75;;
41568;SDS011;27283;52.504;13.358;2023-03-01T03:14:23;48.28;;;21.13;;
41568;SDS011;27283;52.504;13.358;2023-03-01T03:16:57;51.03;;;23.00;;
41568;SDS011;27283;52.504;13.358;2023-03-01T03:19:30;50.47;;;22.70;;
41568;SDS011;27283;52.504;13.358;2023-03-01T03:22:04;48.85;;;22.88;;
41568;SDS011;27283;52.504;13.358;2023-03-01T03:24:37;51.08;;;23.17;;
41568;SDS011;27283;52.504;13.358;2023-03-01T03:27:09;51.88;;;22.77;;
41568;SDS011;27283;52.504;13.358;2023-03-01T03:29:40;48.20;;;22.92;;
41568;SDS011;27283;52.504;13.358;2023-03-01T03:32:15;46.60;;;21.38;;
41568;SDS011;27283;52.504;13.358;2023-03-01T03:34:47;45.28;;;22.02;;
41568;SDS011;27283;52.504;13.358;2023-03-01T03:37:19;50.78;;;21.98;;
41568;SDS011;27283;52.504;13.358;2023-03-01T03:40:04;50.10;;;23.25;;
41568;SDS011;27283;52.504;13.358;2023-03-01T03:42:43;47.45;;;22.83;;
41568;SDS011;27283;52.504;13.358;2023-03-01T03:45:16;46.65;;;21.67;;
41568;SDS011;27283;52.504;13.358;2023-03-01T03:47:51;47.80;;;21.88;;
41568;SDS011;27283;52.504;13.358;2023-03-01T03:50:23;44.20;;;22.73;;
41568;SDS011;27283;52.504;13.358;2023-03-01T03:52:55;46.88;;;21.85;;
41568;SDS011;27283;52.504;13.358;2023-03-01T03:55:27;49.67;;;22.77;;
41568;SDS011;27283;52.504;13.358;2023-03-01T03:58:00;46.08;;;22.45;;
41568;SDS011;27283;52.504;13.358;2023-03-01T04:00:35;50.72;;;22.42;;
41568;SDS011;27283;52.504;13.358;2023-03-01T04:03:12;44.53;;;21.42;;
41568;SDS011;27283;52.504;13.358;2023-03-01T04:05:47;44.83;;;22.00;;
41568;SDS011;27283;52.504;13.358;2023-03-01T04:08:19;50.90;;;21.85;;
41568;SDS011;27283;52.504;13.358;2023-03-01T04:10:53;48.20;;;21.77;;
41568;SDS011;27283;52.504;13.358;2023-03-01T04:13:50;46.92;;;22.17;;
41568;SDS011;27283;52.504;13.358;2023-03-01T04:16:23;48.83;;;22.58;;
41568;SDS011;27283;52.504;13.358;2023-03-01T04:18:58;54.47;;;23.17;;
41568;SDS011;27283;52.504;13.358;2023-03-01T04:21:30;47.05;;;20.67;;
41568;SDS011;27283;52.504;13.358;2023-03-01T04:24:04;42.33;;;20.13;;
41568;SDS011;27283;52.504;13.358;2023-03-01T04:26:37;45.58;;;20.92;;
41568;SDS011;27283;52.504;13.358;2023-03-01T04:29:09;45.17;;;20.50;;
41568;SDS011;27283;52.504;13.358;2023-03-01T04:31:41;47.78;;;20.98;;
41568;SDS011;27283;52.504;13.358;2023-03-01T04:34:16;47.47;;;21.17;;
41568;SDS011;27283;52.504;13.358;2023-03-01T04:36:47;49.15;;;22.80;;
41568;SDS011;27283;52.504;13.358;2023-03-01T04:39:19;45.97;;;20.90;;
41568;SDS011;27283;52.504;13.358;2023-03-01T04:41:51;46.00;;;21.27;;
41568;SDS011;27283;52.504;13.358;2023-03-01T04:44:23;46.25;;;22.10;;
41568;SDS011;27283;52.504;13.358;2023-03-01T04:46:55;47.53;;;21.83;;
41568;SDS011;27283;52.504;13.358;2023-03-01T04:49:29;48.83;;;21.17;;
41568;SDS011;27283;52.504;13.358;2023-03-01T04:52:01;50.25;;;20.98;;
41568;SDS011;27283;52.504;13.358;2023-03-01T04:54:34;41.10;;;21.00;;
41568;SDS011;27283;52.504;13.358;2023-03-01T04:57:07;45.78;;;21.30;;
41568;SDS011;27283;52.504;13.358;2023-03-01T04:59:39;43.92;;;20.65;;
41568;SDS011;27283;52.504;13.358;2023-03-01T05:02:12;42.60;;;20.38;;
41568;SDS011;27283;52.504;13.358;2023-03-01T05:04:47;45.72;;;20.25;;
41568;SDS011;27283;52.504;13.358;2023-03-01T05:07:18;46.92;;;21.05;;
41568;SDS011;27283;52.504;13.358;2023-03-01T05:09:53;45.70;;;21.35;;
41568;SDS011;27283;52.504;13.358;2023-03-01T05:12:25;44.28;;;20.48;;
41568;SDS011;27283;52.504;13.358;2023-03-01T05:14:58;52.58;;;21.25;;
41568;SDS011;27283;52.504;13.358;2023-03-01T05:17:35;43.10;;;20.67;;
41568;SDS011;27283;52.504;13.358;2023-03-01T05:20:11;41.10;;;19.80;;
41568;SDS011;27283;52.504;13.358;2023-03-01T05:22:43;44.83;;;19.67;;
41568;SDS011;27283;52.504;13.358;2023-03-01T05:25:16;44.20;;;21.08;;
41568;SDS011;27283;52.504;13.358;2023-03-01T05:27:49;46.78;;;20.55;;
41568;SDS011;27283;52.504;13.358;2023-03-01T05:30:37;44.33;;;19.85;;
41568;SDS011;27283;52.504;13.358;2023-03-01T05:33:10;41.17;;;19.15;;
41568;SDS011;27283;52.504;13.358;2023-03-01T05:36:10;44.10;;;20.50;;
41568;SDS011;27283;52.504;13.358;2023-03-01T05:38:42;46.17;;;21.42;;
41568;SDS011;27283;52.504;13.358;2023-03-01T05:41:16;44.90;;;21.02;;
41568;SDS011;27283;52.504;13.358;2023-03-01T05:43:48;45.95;;;21.65;;
41568;SDS011;27283;52.504;13.358;2023-03-01T05:46:20;44.78;;;21.08;;
41568;SDS011;27283;52.504;13.358;2023-03-01T05:48:53;47.33;;;20.55;;
41568;SDS011;27283;52.504;13.358;2023-03-01T05:51:28;48.90;;;22.02;;
41568;SDS011;27283;52.504;13.358;2023-03-01T05:54:00;51.53;;;21.65;;
41568;SDS011;27283;52.504;13.358;2023-03-01T05:56:34;49.50;;;22.30;;
41568;SDS011;27283;52.504;13.358;2023-03-01T05:59:07;48.55;;;21.65;;
41568;SDS011;27283;52.504;13.358;2023-03-01T06:01:39;44.60;;;21.38;;
41568;SDS011;27283;52.504;13.358;2023-03-01T06:04:12;50.05;;;21.98;;
41568;SDS011;27283;52.504;13.358;2023-03-01T06:06:47;48.10;;;21.63;;
41568;SDS011;27283;52.504;13.358;2023-03-01T06:09:19;50.22;;;21.98;;
41568;SDS011;27283;52.504;13.358;2023-03-01T06:11:52;48.08;;;22.50;;
41568;SDS011;27283;52.504;13.358;2023-03-01T06:14:24;49.28;;;22.75;;
41568;SDS011;27283;52.504;13.358;2023-03-01T06:16:57;45.20;;;22.25;;
41568;SDS011;27283;52.504;13.358;2023-03-01T06:19:44;46.63;;;21.52;;
41568;SDS011;27283;52.504;13.358;2023-03-01T06:22:20;48.97;;;22.08;;
41568;SDS011;27283;52.504;13.358;2023-03-01T06:24:53;48.70;;;23.52;;
41568;SDS011;27283;52.504;13.358;2023-03-01T06:27:25;49.05;;;22.33;;
41568;SDS011;27283;52.504;13.358;2023-03-01T06:29:57;51.47;;;23.52;;
41568;SDS011;27283;52.504;13.358;2023-03-01T06:32:29;49.70;;;23.45;;
41568;SDS011;27283;52.504;13.358;2023-03-01T06:35:02;55.95;;;23.92;;
41568;SDS011;27283;52.504;13.358;2023-03-01T06:37:37;51.00;;;22.65;;
41568;SDS011;27283;52.504;13.358;2023-03-01T06:40:09;48.10;;;23.17;;
41568;SDS011;27283;52.504;13.358;2023-03-01T06:42:46;51.70;;;23.33;;
41568;SDS011;27283;52.504;13.358;2023-03-01T06:45:20;49.25;;;22.60;;
41568;SDS011;27283;52.504;13.358;2023-03-01T06:47:57;48.75;;;22.80;;
41568;SDS011;27283;52.504;13.358;2023-03-01T06:50:33;43.20;;;22.10;;
41568;SDS011;27283;52.504;13.358;2023-03-01T06:53:09;48.50;;;21.27;;
41568;SDS011;27283;52.504;13.358;2023-03-01T06:55:41;48.95;;;21.65;;
41568;SDS011;27283;52.504;13.358;2023-03-01T06:58:13;47.28;;;21.70;;
41568;SDS011;27283;52.504;13.358;2023-03-01T07:00:45;48.10;;;22.63;;
41568;SDS011;27283;52.504;13.358;2023-03-01T07:03:17;44.28;;;21.45;;
41568;SDS011;27283;52.504;13.358;2023-03-01T07:05:49;47.65;;;21.48;;
41568;SDS011;27283;52.504;13.358;2023-03-01T07:08:25;43.80;;;20.17;;
41568;SDS011;27283;52.504;13.358;2023-03-01T07:11:11;45.38;;;20.27;;
41568;SDS011;27283;52.504;13.358;2023-03-01T07:13:44;40.40;;;20.08;;
41568;SDS011;27283;52.504;13.358;2023-03-01T07:16:16;43.80;;;21.27;;
41568;SDS011;27283;52.504;13.358;2023-03-01T07:18:49;48.42;;;20.98;;
41568;SDS011;27283;52.504;13.358;2023-03-01T07:21:21;46.63;;;21.58;;
41568;SDS011;27283;52.504;13.358;2023-03-01T07:23:56;52.63;;;22.80;;
41568;SDS011;27283;52.504;13.358;2023-03-01T07:26:27;49.08;;;23.67;;
41568;SDS011;27283;52.504;13.358;2023-03-01T07:29:00;47.28;;;22.25;;
41568;SDS011;27283;52.504;13.358;2023-03-01T07:31:32;46.42;;;21.15;;
41568;SDS011;27283;52.504;13.358;2023-03-01T07:34:06;48.60;;;21.73;;
41568;SDS011;27283;52.504;13.358;2023-03-01T07:36:39;45.70;;;22.30;;
41568;SDS011;27283;52.504;13.358;2023-03-01T07:39:14;41.88;;;20.55;;
41568;SDS011;27283;52.504;13.358;2023-03-01T07:41:46;41.45;;;21.13;;
41568;SDS011;27283;52.504;13.358;2023-03-01T07:44:18;41.42;;;20.05;;
41568;SDS011;27283;52.504;13.358;2023-03-01T07:46:50;48.70;;;21.98;;
41568;SDS011;27283;52.504;13.358;2023-03-01T07:49:25;36.70;;;19.05;;
41568;SDS011;27283;52.504;13.358;2023-03-01T07:51:57;34.05;;;16.40;;
41568;SDS011;27283;52.504;13.358;2023-03-01T07:54:32;32.92;;;14.50;;
41568;SDS011;27283;52.504;13.358;2023-03-01T07:57:04;25.98;;;14.00;;
41568;SDS011;27283;52.504;13.358;2023-03-01T07:59:36;26.77;;;13.77;;
41568;SDS011;27283;52.504;13.358;2023-03-01T08:02:09;21.60;;;12.15;;
41568;SDS011;27283;52.504;13.358;2023-03-01T08:04:43;26.80;;;13.07;;
41568;SDS011;27283;52.504;13.358;2023-03-01T08:07:16;29.75;;;13.38;;
41568;SDS011;27283;52.504;13.358;2023-03-01T08:09:50;27.48;;;13.45;;
41568;SDS011;27283;52.504;13.358;2023-03-01T08:12:22;28.55;;;13.35;;
41568;SDS011;27283;52.504;13.358;2023-03-01T08:14:56;26.75;;;12.80;;
41568;SDS011;27283;52.504;13.358;2023-03-01T08:17:28;26.90;;;13.60;;
41568;SDS011;27283;52.504;13.358;2023-03-01T08:20:00;23.40;;;12.35;;
41568;SDS011;27283;52.504;13.358;2023-03-01T08:22:34;23.27;;;12.20;;
41568;SDS011;27283;52.504;13.358;2023-03-01T08:25:10;26.83;;;12.65;;
41568;SDS011;27283;52.504;13.358;2023-03-01T08:27:42;20.55;;;11.35;;
41568;SDS011;27283;52.504;13.358;2023-03-01T08:30:15;23.75;;;11.55;;
41568;SDS011;27283;52.504;13.358;2023-03-01T08:32:49;26.13;;;11.80;;
41568;SDS011;27283;52.504;13.358;2023-03-01T08:35:22;22.17;;;11.30;;
41568;SDS011;27283;52.504;13.358;2023-03-01T08:37:55;24.35;;;11.32;;
41568;SDS011;27283;52.504;13.358;2023-03-01T08:40:30;22.05;;;11.10;;
41568;SDS011;27283;52.504;13.358;2023-03-01T08:43:03;22.60;;;11.20;;
41568;SDS011;27283;52.504;13.358;2023-03-01T08:45:36;24.65;;;10.63;;
41568;SDS011;27283;52.504;13.358;2023-03-01T08:48:08;22.58;;;10.48;;
41568;SDS011;27283;52.504;13.358;2023-03-01T08:50:40;23.17;;;11.05;;
41568;SDS011;27283;52.504;13.358;2023-03-01T08:53:13;21.23;;;11.80;;
41568;SDS011;27283;52.504;13.358;2023-03-01T08:55:49;20.83;;;10.18;;
41568;SDS011;27283;52.504;13.358;2023-03-01T08:58:22;20.65;;;9.25;;
41568;SDS011;27283;52.504;13.358;2023-03-01T09:00:55;16.27;;;8.45;;
41568;SDS011;27283;52.504;13.358;2023-03-01T09:03:28;19.70;;;9.07;;
41568;SDS011;27283;52.504;13.358;2023-03-01T09:06:01;19.25;;;8.45;;
41568;SDS011;27283;52.504;13.358;2023-03-01T09:08:37;18.13;;;7.90;;
41568;SDS011;27283;52.504;13.358;2023-03-01T09:11:16;16.40;;;8.43;;
41568;SDS011;27283;52.504;13.358;2023-03-01T09:13:50;18.50;;;8.13;;
41568;SDS011;27283;52.504;13.358;2023-03-01T09:16:28;17.60;;;7.28;;
41568;SDS011;27283;52.504;13.358;2023-03-01T09:19:21;15.07;;;7.90;;
41568;SDS011;27283;52.504;13.358;2023-03-01T09:21:55;13.95;;;7.63;;
41568;SDS011;27283;52.504;13.358;2023-03-01T09:24:28;13.38;;;6.60;;
41568;SDS011;27283;52.504;13.358;2023-03-01T09:29:50;14.60;;;6.30;;
41568;SDS011;27283;52.504;13.358;2023-03-01T09:32:25;13.52;;;5.45;;
41568;SDS011;27283;52.504;13.358;2023-03-01T09:34:58;12.77;;;5.78;;
41568;SDS011;27283;52.504;13.358;2023-03-01T09:37:36;13.02;;;5.95;;
41568;SDS011;27283;52.504;13.358;2023-03-01T09:40:12;13.00;;;6.10;;
41568;SDS011;27283;52.504;13.358;2023-03-01T09:42:52;13.18;;;6.15;;
41568;SDS011;27283;52.504;13.358;2023-03-01T09:45:33;11.52;;;5.65;;
41568;SDS011;27283;52.504;13.358;2023-03-01T09:48:09;14.60;;;5.60;;
41568;SDS011;27283;52.504;13.358;2023-03-01T09:50:48;13.77;;;5.80;;
41568;SDS011;27283;52.504;13.358;2023-03-01T09:53:21;11.23;;;5.63;;
41568;SDS011;27283;52.504;13.358;2023-03-01T09:55:58;11.82;;;5.90;;
41568;SDS011;27283;52.504;13.358;2023-03-01T09:58:36;13.07;;;5.35;;
41568;SDS011;27283;52.504;13.358;2023-03-01T10:01:29;17.27;;;6.50;;
41568;SDS011;27283;52.504;13.358;2023-03-01T10:04:10;12.63;;;6.75;;
41568;SDS011;27283;52.504;13.358;2023-03-01T10:07:01;16.40;;;6.90;;
41568;SDS011;27283;52.504;13.358;2023-03-01T10:09:45;17.13;;;6.78;;
41568;SDS011;27283;52.504;13.358;2023-03-01T10:12:19;14.25;;;6.72;;
41568;SDS011;27283;52.504;13.358;2023-03-01T10:14:57;12.77;;;6.55;;
41568;SDS011;27283;52.504;13.358;2023-03-01T10:17:37;13.25;;;7.03;;
41568;SDS011;27283;52.504;13.358;2023-03-01T10:20:17;14.55;;;7.30;;
41568;SDS011;27283;52.504;13.358;2023-03-01T10:22:52;13.98;;;7.32;;
41568;SDS011;27283;52.504;13.358;2023-03-01T10:25:34;18.10;;;7.00;;
41568;SDS011;27283;52.504;13.358;2023-03-01T10:28:17;17.25;;;7.55;;
41568;SDS011;27283;52.504;13.358;2023-03-01T10:30:54;16.40;;;7.50;;
41568;SDS011;27283;52.504;13.358;2023-03-01T10:33:32;18.27;;;8.57;;
41568;SDS011;27283;52.504;13.358;2023-03-01T10:36:08;18.27;;;8.40;;
41568;SDS011;27283;52.504;13.358;2023-03-01T10:38:48;14.57;;;7.22;;
41568;SDS011;27283;52.504;13.358;2023-03-01T10:41:24;13.85;;;7.18;;
41568;SDS011;27283;52.504;13.358;2023-03-01T10:43:59;16.45;;;7.07;;
41568;SDS011;27283;52.504;13.358;2023-03-01T10:46:32;16.38;;;7.03;;
41568;SDS011;27283;52.504;13.358;2023-03-01T10:49:12;16.30;;;6.97;;
41568;SDS011;27283;52.504;13.358;2023-03-01T10:51:49;12.23;;;6.70;;
41568;SDS011;27283;52.504;13.358;2023-03-01T10:54:25;11.25;;;5.85;;
41568;SDS011;27283;52.504;13.358;2023-03-01T10:57:01;12.90;;;6.68;;
41568;SDS011;27283;52.504;13.358;2023-03-01T10:59:36;13.40;;;7.22;;
41568;SDS011;27283;52.504;13.358;2023-03-01T11:02:15;14.93;;;6.75;;
41568;SDS011;27283;52.504;13.358;2023-03-01T11:05:00;14.43;;;6.20;;
41568;SDS011;27283;52.504;13.358;2023-03-01T11:07:38;13.23;;;6.72;;
41568;SDS011;27283;52.504;13.358;2023-03-01T11:10:20;11.98;;;6.60;;
41568;SDS011;27283;52.504;13.358;2023-03-01T11:13:05;12.50;;;6.20;;
41568;SDS011;27283;52.504;13.358;2023-03-01T11:15:40;12.25;;;5.05;;
41568;SDS011;27283;52.504;13.358;2023-03-01T11:18:20;8.07;;;4.55;;
41568;SDS011;27283;52.504;13.358;2023-03-01T11:21:16;7.45;;;4.47;;
41568;SDS011;27283;52.504;13.358;2023-03-01T11:23:49;13.13;;;4.00;;
41568;SDS011;27283;52.504;13.358;2023-03-01T11:26:22;8.38;;;4.28;;
41568;SDS011;27283;52.504;13.358;2023-03-01T11:28:56;9.00;;;4.22;;
41568;SDS011;27283;52.504;13.358;2023-03-01T11:31:36;9.07;;;4.85;;
41568;SDS011;27283;52.504;13.358;2023-03-01T11:34:28;6.28;;;4.10;;
41568;SDS011;27283;52.504;13.358;2023-03-01T11:37:16;7.13;;;3.53;;
41568;SDS011;27283;52.504;13.358;2023-03-01T11:40:00;7.80;;;3.38;;
41568;SDS011;27283;52.504;13.358;2023-03-01T11:42:51;9.30;;;3.70;;
41568;SDS011;27283;52.504;13.358;2023-03-01T11:45:45;9.25;;;3.95;;
41568;SDS011;27283;52.504;13.358;2023-03-01T11:48:33;8.50;;;3.65;;
41568;SDS011;27283;52.504;13.358;2023-03-01T11:51:23;9.60;;;3.50;;
41568;SDS011;27283;52.504;13.358;2023-03-01T11:54:23;6.60;;;3.53;;
41568;SDS011;27283;52.504;13.358;2023-03-01T11:57:04;7.22;;;3.90;;
41568;SDS011;27283;52.504;13.358;2023-03-01T11:59:50;8.05;;;3.97;;
41568;SDS011;27283;52.504;13.358;2023-03-01T12:02:45;9.07;;;3.92;;
41568;SDS011;27283;52.504;13.358;2023-03-01T12:05:46;7.65;;;3.72;;
41568;SDS011;27283;52.504;13.358;2023-03-01T12:08:34;7.53;;;3.97;;
41568;SDS011;27283;52.504;13.358;2023-03-01T12:11:16;10.63;;;4.03;;
41568;SDS011;27283;52.504;13.358;2023-03-01T12:14:08;6.45;;;3.45;;
41568;SDS011;27283;52.504;13.358;2023-03-01T12:17:00;9.15;;;3.70;;
41568;SDS011;27283;52.504;13.358;2023-03-01T12:19:58;10.23;;;4.10;;
41568;SDS011;27283;52.504;13.358;2023-03-01T12:22:46;13.52;;;5.80;;
41568;SDS011;27283;52.504;13.358;2023-03-01T12:25:49;9.65;;;4.32;;
41568;SDS011;27283;52.504;13.358;2023-03-01T12:31:41;11.82;;;4.97;;
41568;SDS011;27283;52.504;13.358;2023-03-01T12:34:37;8.27;;;4.10;;
41568;SDS011;27283;52.504;13.358;2023-03-01T12:37:29;7.80;;;3.58;;
41568;SDS011;27283;52.504;13.358;2023-03-01T12:40:15;7.28;;;3.53;;
41568;SDS011;27283;52.504;13.358;2023-03-01T12:43:00;7.18;;;3.53;;
41568;SDS011;27283;52.504;13.358;2023-03-01T12:45:48;8.00;;;3.33;;
41568;SDS011;27283;52.504;13.358;2023-03-01T12:48:39;9.07;;;3.78;;
41568;SDS011;27283;52.504;13.358;2023-03-01T12:51:20;7.63;;;3.85;;
41568;SDS011;27283;52.504;13.358;2023-03-01T12:53:57;9.88;;;4.10;;
41568;SDS011;27283;52.504;13.358;2023-03-01T12:56:43;8.40;;;3.92;;
41568;SDS011;27283;52.504;13.358;2023-03-01T12:59:21;6.63;;;3.53;;
41568;SDS011;27283;52.504;13.358;2023-03-01T13:02:03;9.55;;;3.80;;
41568;SDS011;27283;52.504;13.358;2023-03-01T13:04:57;9.32;;;4.53;;
41568;SDS011;27283;52.504;13.358;2023-03-01T13:07:39;9.90;;;3.80;;
41568;SDS011;27283;52.504;13.358;2023-03-01T13:10:23;9.52;;;3.42;;
41568;SDS011;27283;52.504;13.358;2023-03-01T13:13:11;8.10;;;3.83;;
41568;SDS011;27283;52.504;13.358;2023-03-01T13:16:11;9.05;;;3.90;;
41568;SDS011;27283;52.504;13.358;2023-03-01T13:19:05;11.82;;;4.80;;
41568;SDS011;27283;52.504;13.358;2023-03-01T13:21:41;9.38;;;3.90;;
41568;SDS011;27283;52.504;13.358;2023-03-01T13:24:24;6.70;;;3.38;;
41568;SDS011;27283;52.504;13.358;2023-03-01T13:27:09;10.68;;;4.10;;
41568;SDS011;27283;52.504;13.358;2023-03-01T13:29:57;9.93;;;4.07;;
41568;SDS011;27283;52.504;13.358;2023-03-01T13:32:39;8.88;;;4.18;;
41568;SDS011;27283;52.504;13.358;2023-03-01T13:41:50;11.23;;;3.75;;
41568;SDS011;27283;52.504;13.358;2023-03-01T13:44:30;7.03;;;3.47;;
41568;SDS011;27283;52.504;13.358;2023-03-01T13:47:14;7.60;;;3.30;;
41568;SDS011;27283;52.504;13.358;2023-03-01T13:49:49;6.30;;;3.08;;
41568;SDS011;27283;52.504;13.358;2023-03-01T13:55:21;7.15;;;3.38;;
41568;SDS011;27283;52.504;13.358;2023-03-01T13:57:59;6.57;;;3.65;;
41568;SDS011;27283;52.504;13.358;2023-03-01T14:00:36;8.90;;;3.47;;
41568;SDS011;27283;52.504;13.358;2023-03-01T14:03:10;5.22;;;2.95;;
41568;SDS011;27283;52.504;13.358;2023-03-01T14:05:56;6.60;;;3.38;;
41568;SDS011;27283;52.504;13.358;2023-03-01T14:08:42;17.17;;;7.07;;
41568;SDS011;27283;52.504;13.358;2023-03-01T14:11:24;7.85;;;3.47;;
41568;SDS011;27283;52.504;13.358;2023-03-01T14:14:30;6.35;;;2.88;;
41568;SDS011;27283;52.504;13.358;2023-03-01T14:20:20;7.85;;;2.60;;
41568;SDS011;27283;52.504;13.358;2023-03-01T14:22:59;6.03;;;2.45;;
41568;SDS011;27283;52.504;13.358;2023-03-01T14:25:33;7.65;;;2.67;;
41568;SDS011;27283;52.504;13.358;2023-03-01T14:28:13;7.47;;;2.40;;
41568;SDS011;27283;52.504;13.358;2023-03-01T14:30:50;5.65;;;2.40;;
41568;SDS011;27283;52.504;13.358;2023-03-01T14:33:23;4.80;;;2.60;;
41568;SDS011;27283;52.504;13.358;2023-03-01T14:35:57;6.15;;;2.70;;
41568;SDS011;27283;52.504;13.358;2023-03-01T14:38:32;6.07;;;2.72;;
41568;SDS011;27283;52.504;13.358;2023-03-01T14:41:06;9.27;;;2.67;;
41568;SDS011;27283;52.504;13.358;2023-03-01T14:43:44;6.10;;;2.42;;
41568;SDS011;27283;52.504;13.358;2023-03-01T14:46:21;7.35;;;3.15;;
41568;SDS011;27283;52.504;13.358;2023-03-01T14:48:56;4.70;;;2.90;;
41568;SDS011;27283;52.504;13.358;2023-03-01T14:51:36;7.13;;;2.88;;
41568;SDS011;27283;52.504;13.358;2023-03-01T14:54:18;4.43;;;2.67;;
41568;SDS011;27283;52.504;13.358;2023-03-01T14:56:53;5.30;;;2.80;;
41568;SDS011;27283;52.504;13.358;2023-03-01T14:59:28;5.55;;;2.67;;
41568;SDS011;27283;52.504;13.358;2023-03-01T15:02:02;8.27;;;3.70;;
41568;SDS011;27283;52.504;13.358;2023-03-01T15:04:34;7.05;;;3.33;;
41568;SDS011;27283;52.504;13.358;2023-03-01T15:07:05;9.45;;;3.20;;
41568;SDS011;27283;52.504;13.358;2023-03-01T15:09:36;160.25;;;57.65;;
41568;SDS011;27283;52.504;13.358;2023-03-01T15:18:03;7.93;;;3.40;;
41568;SDS011;27283;52.504;13.358;2023-03-01T15:20:43;6.50;;;2.90;;
41568;SDS011;27283;52.504;13.358;2023-03-01T15:23:22;9.40;;;3.30;;
41568;SDS011;27283;52.504;13.358;2023-03-01T15:25:56;13.80;;;4.82;;
41568;SDS011;27283;52.504;13.358;2023-03-01T15:28:29;7.90;;;3.25;;
41568;SDS011;27283;52.504;13.358;2023-03-01T15:31:03;10.80;;;5.30;;
41568;SDS011;27283;52.504;13.358;2023-03-01T15:33:45;8.13;;;3.00;;
41568;SDS011;27283;52.504;13.358;2023-03-01T15:36:31;5.97;;;2.80;;